sensor_id;sensor_type;location;lat;lon;timestamp;P1;durP1;ratioP1;P2;durP2;ratioP2
32138;SDS011;18644;48.700;9.210;2023-12-20T00:01:16;1.33;;;0.90;;
32138;SDS011;18644;48.700;9.210;2023-12-20T00:03:44;0.70;;;0.70;;
32138;SDS011;18644;48.700;9.210;2023-12-20T00:06:11;0.77;;;0.73;;
32138;SDS011;18644;48.700;9.210;2023-12-20T00:08:38;0.77;;;0.75;;
32138;SDS011;18644;48.700;9.210;2023-12-20T00:11:04;0.95;;;0.60;;
32138;SDS011;18644;48.700;9.210;2023-12-20T00:13:31;0.80;;;0.60;;
32138;SDS011;18644;48.700;9.210;2023-12-20T00:15:58;0.80;;;0.70;;
32138;SDS011;18644;48.700;9.210;2023-12-20T00:18:25;1.30;;;1.20;;
32138;SDS011;18644;48.700;9.210;2023-12-20T00:20:53;1.05;;;0.60;;
32138;SDS011;18644;48.700;9.210;2023-12-20T00:23:20;0.68;;;0.60;;
32138;SDS011;18644;48.700;9.210;2023-12-20T00:25:48;0.80;;;0.80;;
32138;SDS011;18644;48.700;9.210;2023-12-20T00:28:15;0.65;;;0.65;;
32138;SDS011;18644;48.700;9.210;2023-12-20T00:30:42;0.65;;;0.65;;
32138;SDS011;18644;48.700;9.210;2023-12-20T00:33:09;0.60;;;0.60;;
32138;SDS011;18644;48.700;9.210;2023-12-20T00:35:36;0.68;;;0.60;;
32138;SDS011;18644;48.700;9.210;2023-12-20T00:38:04;0.60;;;0.60;;
32138;SDS011;18644;48.700;9.210;2023-12-20T00:40:32;0.73;;;0.73;;
32138;SDS011;18644;48.700;9.210;2023-12-20T00:42:59;0.82;;;0.70;;
32138;SDS011;18644;48.700;9.210;2023-12-20T00:45:26;0.88;;;0.80;;
32138;SDS011;18644;48.700;9.210;2023-12-20T00:47:52;0.52;;;0.50;;
32138;SDS011;18644;48.700;9.210;2023-12-20T00:50:19;0.60;;;0.60;;
32138;SDS011;18644;48.700;9.210;2023-12-20T00:52:47;2.15;;;0.52;;
32138;SDS011;18644;48.700;9.210;2023-12-20T00:55:15;0.60;;;0.50;;
32138;SDS011;18644;48.700;9.210;2023-12-20T00:57:42;0.60;;;0.60;;
32138;SDS011;18644;48.700;9.210;2023-12-20T01:00:09;0.70;;;0.70;;
32138;SDS011;18644;48.700;9.210;2023-12-20T01:02:38;0.60;;;0.60;;
32138;SDS011;18644;48.700;9.210;2023-12-20T01:05:05;0.50;;;0.50;;
32138;SDS011;18644;48.700;9.210;2023-12-20T01:07:34;0.50;;;0.50;;
32138;SDS011;18644;48.700;9.210;2023-12-20T01:10:01;0.60;;;0.60;;
32138;SDS011;18644;48.700;9.210;2023-12-20T01:12:29;0.60;;;0.60;;
32138;SDS011;18644;48.700;9.210;2023-12-20T01:14:55;2.28;;;0.52;;
32138;SDS011;18644;48.700;9.210;2023-12-20T01:17:23;1.08;;;0.60;;
32138;SDS011;18644;48.700;9.210;2023-12-20T01:19:50;0.65;;;0.65;;
32138;SDS011;18644;48.700;9.210;2023-12-20T01:22:17;0.45;;;0.45;;
32138;SDS011;18644;48.700;9.210;2023-12-20T01:24:44;0.43;;;0.43;;
32138;SDS011;18644;48.700;9.210;2023-12-20T01:27:11;0.52;;;0.50;;
32138;SDS011;18644;48.700;9.210;2023-12-20T01:29:39;1.20;;;0.70;;
32138;SDS011;18644;48.700;9.210;2023-12-20T01:32:06;2.08;;;0.57;;
32138;SDS011;18644;48.700;9.210;2023-12-20T01:34:33;0.85;;;0.68;;
32138;SDS011;18644;48.700;9.210;2023-12-20T01:37:01;0.55;;;0.55;;
32138;SDS011;18644;48.700;9.210;2023-12-20T01:39:29;3.17;;;0.90;;
32138;SDS011;18644;48.700;9.210;2023-12-20T01:41:56;0.65;;;0.60;;
32138;SDS011;18644;48.700;9.210;2023-12-20T01:44:23;0.57;;;0.50;;
32138;SDS011;18644;48.700;9.210;2023-12-20T01:46:51;0.70;;;0.70;;
32138;SDS011;18644;48.700;9.210;2023-12-20T01:49:18;0.40;;;0.40;;
32138;SDS011;18644;48.700;9.210;2023-12-20T01:51:45;0.82;;;0.65;;
32138;SDS011;18644;48.700;9.210;2023-12-20T01:54:12;0.70;;;0.70;;
32138;SDS011;18644;48.700;9.210;2023-12-20T01:56:39;0.60;;;0.60;;
32138;SDS011;18644;48.700;9.210;2023-12-20T01:59:07;1.10;;;0.60;;
32138;SDS011;18644;48.700;9.210;2023-12-20T02:01:34;0.55;;;0.55;;
32138;SDS011;18644;48.700;9.210;2023-12-20T02:04:05;0.93;;;0.60;;
32138;SDS011;18644;48.700;9.210;2023-12-20T02:06:32;0.52;;;0.52;;
32138;SDS011;18644;48.700;9.210;2023-12-20T02:09:00;1.38;;;0.60;;
32138;SDS011;18644;48.700;9.210;2023-12-20T02:11:28;0.70;;;0.70;;
32138;SDS011;18644;48.700;9.210;2023-12-20T02:13:56;0.52;;;0.52;;
32138;SDS011;18644;48.700;9.210;2023-12-20T02:16:23;0.93;;;0.57;;
32138;SDS011;18644;48.700;9.210;2023-12-20T02:21:33;0.60;;;0.60;;
32138;SDS011;18644;48.700;9.210;2023-12-20T02:24:00;0.50;;;0.50;;
32138;SDS011;18644;48.700;9.210;2023-12-20T02:26:27;0.50;;;0.50;;
32138;SDS011;18644;48.700;9.210;2023-12-20T02:28:55;1.48;;;0.57;;
32138;SDS011;18644;48.700;9.210;2023-12-20T02:31:22;0.90;;;0.50;;
32138;SDS011;18644;48.700;9.210;2023-12-20T02:33:49;0.50;;;0.50;;
32138;SDS011;18644;48.700;9.210;2023-12-20T02:36:16;0.85;;;0.60;;
32138;SDS011;18644;48.700;9.210;2023-12-20T02:38:45;1.17;;;0.60;;
32138;SDS011;18644;48.700;9.210;2023-12-20T02:43:47;0.60;;;0.60;;
32138;SDS011;18644;48.700;9.210;2023-12-20T02:46:14;0.50;;;0.50;;
32138;SDS011;18644;48.700;9.210;2023-12-20T02:48:42;0.50;;;0.50;;
32138;SDS011;18644;48.700;9.210;2023-12-20T02:51:09;0.47;;;0.47;;
32138;SDS011;18644;48.700;9.210;2023-12-20T02:53:36;0.50;;;0.50;;
32138;SDS011;18644;48.700;9.210;2023-12-20T02:56:05;0.70;;;0.60;;
32138;SDS011;18644;48.700;9.210;2023-12-20T02:58:32;0.57;;;0.57;;
32138;SDS011;18644;48.700;9.210;2023-12-20T03:00:59;0.50;;;0.50;;
32138;SDS011;18644;48.700;9.210;2023-12-20T03:03:25;0.50;;;0.50;;
32138;SDS011;18644;48.700;9.210;2023-12-20T03:05:52;0.50;;;0.50;;
32138;SDS011;18644;48.700;9.210;2023-12-20T03:08:19;0.47;;;0.47;;
32138;SDS011;18644;48.700;9.210;2023-12-20T03:10:46;0.68;;;0.65;;
32138;SDS011;18644;48.700;9.210;2023-12-20T03:13:15;0.50;;;0.50;;
32138;SDS011;18644;48.700;9.210;2023-12-20T03:15:42;0.47;;;0.47;;
32138;SDS011;18644;48.700;9.210;2023-12-20T03:18:09;1.10;;;0.60;;
32138;SDS011;18644;48.700;9.210;2023-12-20T03:20:36;0.40;;;0.40;;
32138;SDS011;18644;48.700;9.210;2023-12-20T03:23:03;0.40;;;0.40;;
32138;SDS011;18644;48.700;9.210;2023-12-20T03:25:30;0.43;;;0.43;;
32138;SDS011;18644;48.700;9.210;2023-12-20T03:27:57;0.55;;;0.40;;
32138;SDS011;18644;48.700;9.210;2023-12-20T03:30:25;0.50;;;0.50;;
32138;SDS011;18644;48.700;9.210;2023-12-20T03:32:52;0.73;;;0.40;;
32138;SDS011;18644;48.700;9.210;2023-12-20T03:35:18;0.40;;;0.40;;
32138;SDS011;18644;48.700;9.210;2023-12-20T03:37:45;0.40;;;0.40;;
32138;SDS011;18644;48.700;9.210;2023-12-20T03:40:12;0.47;;;0.47;;
32138;SDS011;18644;48.700;9.210;2023-12-20T03:42:39;0.40;;;0.40;;
32138;SDS011;18644;48.700;9.210;2023-12-20T03:45:06;0.45;;;0.45;;
32138;SDS011;18644;48.700;9.210;2023-12-20T03:47:36;0.40;;;0.40;;
32138;SDS011;18644;48.700;9.210;2023-12-20T03:50:03;0.57;;;0.40;;
32138;SDS011;18644;48.700;9.210;2023-12-20T03:52:31;0.47;;;0.47;;
32138;SDS011;18644;48.700;9.210;2023-12-20T03:54:58;0.95;;;0.77;;
32138;SDS011;18644;48.700;9.210;2023-12-20T03:57:24;0.40;;;0.40;;
32138;SDS011;18644;48.700;9.210;2023-12-20T03:59:51;0.40;;;0.40;;
32138;SDS011;18644;48.700;9.210;2023-12-20T04:02:18;0.70;;;0.40;;
32138;SDS011;18644;48.700;9.210;2023-12-20T04:04:47;0.60;;;0.40;;
32138;SDS011;18644;48.700;9.210;2023-12-20T04:07:14;0.40;;;0.40;;
32138;SDS011;18644;48.700;9.210;2023-12-20T04:09:40;1.27;;;0.50;;
32138;SDS011;18644;48.700;9.210;2023-12-20T04:12:07;0.40;;;0.38;;
32138;SDS011;18644;48.700;9.210;2023-12-20T04:14:34;1.38;;;0.40;;
32138;SDS011;18644;48.700;9.210;2023-12-20T04:17:01;0.40;;;0.40;;
32138;SDS011;18644;48.700;9.210;2023-12-20T04:19:28;1.35;;;0.40;;
32138;SDS011;18644;48.700;9.210;2023-12-20T04:21:57;0.40;;;0.40;;
32138;SDS011;18644;48.700;9.210;2023-12-20T04:24:23;0.30;;;0.30;;
32138;SDS011;18644;48.700;9.210;2023-12-20T04:26:50;2.22;;;0.40;;
32138;SDS011;18644;48.700;9.210;2023-12-20T04:29:17;0.40;;;0.40;;
32138;SDS011;18644;48.700;9.210;2023-12-20T04:31:44;0.30;;;0.30;;
32138;SDS011;18644;48.700;9.210;2023-12-20T04:34:11;2.67;;;0.85;;
32138;SDS011;18644;48.700;9.210;2023-12-20T04:36:37;0.40;;;0.40;;
32138;SDS011;18644;48.700;9.210;2023-12-20T04:39:06;0.93;;;0.45;;
32138;SDS011;18644;48.700;9.210;2023-12-20T04:41:32;2.90;;;0.70;;
32138;SDS011;18644;48.700;9.210;2023-12-20T04:43:59;0.40;;;0.30;;
32138;SDS011;18644;48.700;9.210;2023-12-20T04:46:27;0.40;;;0.40;;
32138;SDS011;18644;48.700;9.210;2023-12-20T04:48:54;0.40;;;0.40;;
32138;SDS011;18644;48.700;9.210;2023-12-20T04:51:20;0.63;;;0.40;;
32138;SDS011;18644;48.700;9.210;2023-12-20T04:53:47;0.40;;;0.40;;
32138;SDS011;18644;48.700;9.210;2023-12-20T04:56:16;0.75;;;0.60;;
32138;SDS011;18644;48.700;9.210;2023-12-20T04:58:42;0.77;;;0.40;;
32138;SDS011;18644;48.700;9.210;2023-12-20T05:01:09;0.30;;;0.30;;
32138;SDS011;18644;48.700;9.210;2023-12-20T05:03:36;0.30;;;0.30;;
32138;SDS011;18644;48.700;9.210;2023-12-20T05:06:03;1.40;;;0.50;;
32138;SDS011;18644;48.700;9.210;2023-12-20T05:08:30;0.30;;;0.30;;
32138;SDS011;18644;48.700;9.210;2023-12-20T05:10:57;0.60;;;0.35;;
32138;SDS011;18644;48.700;9.210;2023-12-20T05:13:25;0.40;;;0.40;;
32138;SDS011;18644;48.700;9.210;2023-12-20T05:15:52;0.68;;;0.50;;
32138;SDS011;18644;48.700;9.210;2023-12-20T05:18:19;0.68;;;0.40;;
32138;SDS011;18644;48.700;9.210;2023-12-20T05:20:48;0.45;;;0.45;;
32138;SDS011;18644;48.700;9.210;2023-12-20T05:23:15;3.83;;;0.50;;
32138;SDS011;18644;48.700;9.210;2023-12-20T05:25:43;0.85;;;0.45;;
32138;SDS011;18644;48.700;9.210;2023-12-20T05:28:10;2.28;;;0.50;;
32138;SDS011;18644;48.700;9.210;2023-12-20T05:30:38;0.30;;;0.30;;
32138;SDS011;18644;48.700;9.210;2023-12-20T05:33:05;0.40;;;0.40;;
32138;SDS011;18644;48.700;9.210;2023-12-20T05:35:32;2.22;;;0.40;;
32138;SDS011;18644;48.700;9.210;2023-12-20T05:37:59;0.40;;;0.40;;
32138;SDS011;18644;48.700;9.210;2023-12-20T05:40:26;1.30;;;0.30;;
32138;SDS011;18644;48.700;9.210;2023-12-20T05:42:53;0.40;;;0.40;;
32138;SDS011;18644;48.700;9.210;2023-12-20T05:45:20;0.55;;;0.50;;
32138;SDS011;18644;48.700;9.210;2023-12-20T05:47:47;0.65;;;0.40;;
32138;SDS011;18644;48.700;9.210;2023-12-20T05:50:14;0.77;;;0.50;;
32138;SDS011;18644;48.700;9.210;2023-12-20T05:52:41;0.40;;;0.40;;
32138;SDS011;18644;48.700;9.210;2023-12-20T05:55:08;0.50;;;0.30;;
32138;SDS011;18644;48.700;9.210;2023-12-20T05:57:35;0.40;;;0.40;;
32138;SDS011;18644;48.700;9.210;2023-12-20T06:00:02;0.40;;;0.40;;
32138;SDS011;18644;48.700;9.210;2023-12-20T06:02:29;0.50;;;0.50;;
32138;SDS011;18644;48.700;9.210;2023-12-20T06:04:57;0.50;;;0.50;;
32138;SDS011;18644;48.700;9.210;2023-12-20T06:07:24;1.15;;;0.32;;
32138;SDS011;18644;48.700;9.210;2023-12-20T06:09:51;0.82;;;0.45;;
32138;SDS011;18644;48.700;9.210;2023-12-20T06:12:18;0.57;;;0.47;;
32138;SDS011;18644;48.700;9.210;2023-12-20T06:14:45;0.47;;;0.47;;
32138;SDS011;18644;48.700;9.210;2023-12-20T06:17:12;0.40;;;0.40;;
32138;SDS011;18644;48.700;9.210;2023-12-20T06:19:39;0.40;;;0.40;;
32138;SDS011;18644;48.700;9.210;2023-12-20T06:22:09;0.65;;;0.40;;
32138;SDS011;18644;48.700;9.210;2023-12-20T06:24:35;1.55;;;0.77;;
32138;SDS011;18644;48.700;9.210;2023-12-20T06:27:03;0.40;;;0.40;;
32138;SDS011;18644;48.700;9.210;2023-12-20T06:29:30;0.63;;;0.50;;
32138;SDS011;18644;48.700;9.210;2023-12-20T06:31:56;0.47;;;0.47;;
32138;SDS011;18644;48.700;9.210;2023-12-20T06:34:23;0.60;;;0.50;;
32138;SDS011;18644;48.700;9.210;2023-12-20T06:36:50;1.00;;;0.60;;
32138;SDS011;18644;48.700;9.210;2023-12-20T06:39:18;1.13;;;0.50;;
32138;SDS011;18644;48.700;9.210;2023-12-20T06:41:45;0.85;;;0.50;;
32138;SDS011;18644;48.700;9.210;2023-12-20T06:44:12;0.73;;;0.60;;
32138;SDS011;18644;48.700;9.210;2023-12-20T06:46:39;0.50;;;0.50;;
32138;SDS011;18644;48.700;9.210;2023-12-20T06:49:06;1.08;;;0.52;;
32138;SDS011;18644;48.700;9.210;2023-12-20T06:51:33;1.65;;;0.50;;
32138;SDS011;18644;48.700;9.210;2023-12-20T06:54:00;1.02;;;0.75;;
32138;SDS011;18644;48.700;9.210;2023-12-20T06:56:29;0.80;;;0.65;;
32138;SDS011;18644;48.700;9.210;2023-12-20T06:58:55;1.70;;;0.50;;
32138;SDS011;18644;48.700;9.210;2023-12-20T07:01:22;1.55;;;0.52;;
32138;SDS011;18644;48.700;9.210;2023-12-20T07:03:49;1.88;;;0.45;;
32138;SDS011;18644;48.700;9.210;2023-12-20T07:06:16;0.52;;;0.52;;
32138;SDS011;18644;48.700;9.210;2023-12-20T07:08:43;0.90;;;0.70;;
32138;SDS011;18644;48.700;9.210;2023-12-20T07:11:10;0.43;;;0.43;;
32138;SDS011;18644;48.700;9.210;2023-12-20T07:13:38;0.50;;;0.50;;
32138;SDS011;18644;48.700;9.210;2023-12-20T07:16:05;0.50;;;0.50;;
32138;SDS011;18644;48.700;9.210;2023-12-20T07:18:32;0.47;;;0.47;;
32138;SDS011;18644;48.700;9.210;2023-12-20T07:20:59;0.57;;;0.50;;
32138;SDS011;18644;48.700;9.210;2023-12-20T07:23:26;0.50;;;0.50;;
32138;SDS011;18644;48.700;9.210;2023-12-20T07:25:53;0.50;;;0.50;;
32138;SDS011;18644;48.700;9.210;2023-12-20T07:28:20;0.40;;;0.40;;
32138;SDS011;18644;48.700;9.210;2023-12-20T07:30:48;0.50;;;0.50;;
32138;SDS011;18644;48.700;9.210;2023-12-20T07:33:15;1.30;;;0.68;;
32138;SDS011;18644;48.700;9.210;2023-12-20T07:35:42;0.82;;;0.70;;
32138;SDS011;18644;48.700;9.210;2023-12-20T07:38:10;0.50;;;0.50;;
32138;SDS011;18644;48.700;9.210;2023-12-20T07:40:37;1.02;;;0.70;;
32138;SDS011;18644;48.700;9.210;2023-12-20T07:43:05;0.93;;;0.88;;
32138;SDS011;18644;48.700;9.210;2023-12-20T07:45:32;0.70;;;0.60;;
32138;SDS011;18644;48.700;9.210;2023-12-20T07:48:00;0.93;;;0.85;;
32138;SDS011;18644;48.700;9.210;2023-12-20T07:50:27;1.42;;;0.80;;
32138;SDS011;18644;48.700;9.210;2023-12-20T07:52:53;1.48;;;1.00;;
32138;SDS011;18644;48.700;9.210;2023-12-20T07:55:20;1.60;;;1.25;;
32138;SDS011;18644;48.700;9.210;2023-12-20T07:57:47;1.52;;;1.35;;
32138;SDS011;18644;48.700;9.210;2023-12-20T08:00:14;3.13;;;1.38;;
32138;SDS011;18644;48.700;9.210;2023-12-20T08:02:43;3.88;;;1.50;;
32138;SDS011;18644;48.700;9.210;2023-12-20T08:05:11;3.22;;;1.75;;
32138;SDS011;18644;48.700;9.210;2023-12-20T08:07:38;1.70;;;1.40;;
32138;SDS011;18644;48.700;9.210;2023-12-20T08:10:05;2.83;;;1.75;;
32138;SDS011;18644;48.700;9.210;2023-12-20T08:12:33;2.20;;;1.70;;
32138;SDS011;18644;48.700;9.210;2023-12-20T08:15:01;2.35;;;1.70;;
32138;SDS011;18644;48.700;9.210;2023-12-20T08:17:29;2.42;;;1.60;;
32138;SDS011;18644;48.700;9.210;2023-12-20T08:19:55;3.33;;;1.70;;
32138;SDS011;18644;48.700;9.210;2023-12-20T08:22:23;3.75;;;2.15;;
32138;SDS011;18644;48.700;9.210;2023-12-20T08:24:50;2.05;;;1.83;;
32138;SDS011;18644;48.700;9.210;2023-12-20T08:27:17;3.42;;;2.33;;
32138;SDS011;18644;48.700;9.210;2023-12-20T08:29:44;2.75;;;1.70;;
32138;SDS011;18644;48.700;9.210;2023-12-20T08:32:11;8.75;;;2.40;;
32138;SDS011;18644;48.700;9.210;2023-12-20T08:34:38;2.28;;;1.83;;
32138;SDS011;18644;48.700;9.210;2023-12-20T08:37:05;2.70;;;1.65;;
32138;SDS011;18644;48.700;9.210;2023-12-20T08:39:33;3.95;;;1.88;;
32138;SDS011;18644;48.700;9.210;2023-12-20T08:42:00;2.47;;;1.52;;
32138;SDS011;18644;48.700;9.210;2023-12-20T08:44:27;2.30;;;1.90;;
32138;SDS011;18644;48.700;9.210;2023-12-20T08:46:53;2.60;;;1.70;;
32138;SDS011;18644;48.700;9.210;2023-12-20T08:49:22;2.28;;;2.00;;
32138;SDS011;18644;48.700;9.210;2023-12-20T08:51:49;4.43;;;2.58;;
32138;SDS011;18644;48.700;9.210;2023-12-20T08:54:15;3.45;;;2.25;;
32138;SDS011;18644;48.700;9.210;2023-12-20T08:56:45;2.05;;;1.73;;
32138;SDS011;18644;48.700;9.210;2023-12-20T08:59:12;3.67;;;2.10;;
32138;SDS011;18644;48.700;9.210;2023-12-20T09:01:39;6.97;;;1.90;;
32138;SDS011;18644;48.700;9.210;2023-12-20T09:04:06;2.38;;;1.90;;
32138;SDS011;18644;48.700;9.210;2023-12-20T09:06:33;2.58;;;1.60;;
32138;SDS011;18644;48.700;9.210;2023-12-20T09:09:00;2.20;;;1.55;;
32138;SDS011;18644;48.700;9.210;2023-12-20T09:11:27;1.95;;;1.60;;
32138;SDS011;18644;48.700;9.210;2023-12-20T09:13:55;1.83;;;1.40;;
32138;SDS011;18644;48.700;9.210;2023-12-20T09:16:22;2.47;;;1.30;;
32138;SDS011;18644;48.700;9.210;2023-12-20T09:18:49;3.35;;;1.85;;
32138;SDS011;18644;48.700;9.210;2023-12-20T09:21:17;5.40;;;2.05;;
32138;SDS011;18644;48.700;9.210;2023-12-20T09:23:43;1.58;;;1.38;;
32138;SDS011;18644;48.700;9.210;2023-12-20T09:26:10;2.58;;;1.40;;
32138;SDS011;18644;48.700;9.210;2023-12-20T09:28:37;1.95;;;1.50;;
32138;SDS011;18644;48.700;9.210;2023-12-20T09:31:06;3.13;;;1.60;;
32138;SDS011;18644;48.700;9.210;2023-12-20T09:33:33;1.20;;;1.10;;
32138;SDS011;18644;48.700;9.210;2023-12-20T09:36:00;1.52;;;1.17;;
32138;SDS011;18644;48.700;9.210;2023-12-20T09:38:27;5.55;;;1.30;;
32138;SDS011;18644;48.700;9.210;2023-12-20T09:40:54;3.25;;;1.10;;
32138;SDS011;18644;48.700;9.210;2023-12-20T09:43:22;2.92;;;1.17;;
32138;SDS011;18644;48.700;9.210;2023-12-20T09:45:53;2.17;;;1.15;;
32138;SDS011;18644;48.700;9.210;2023-12-20T09:48:28;4.53;;;1.73;;
32138;SDS011;18644;48.700;9.210;2023-12-20T09:50:56;1.60;;;1.00;;
32138;SDS011;18644;48.700;9.210;2023-12-20T09:53:23;1.83;;;1.20;;
32138;SDS011;18644;48.700;9.210;2023-12-20T09:55:55;3.63;;;1.53;;
32138;SDS011;18644;48.700;9.210;2023-12-20T09:58:24;1.98;;;1.15;;
32138;SDS011;18644;48.700;9.210;2023-12-20T10:00:51;3.53;;;1.15;;
32138;SDS011;18644;48.700;9.210;2023-12-20T10:03:21;1.65;;;1.20;;
32138;SDS011;18644;48.700;9.210;2023-12-20T10:05:53;3.05;;;1.27;;
32138;SDS011;18644;48.700;9.210;2023-12-20T10:08:23;2.33;;;1.40;;
32138;SDS011;18644;48.700;9.210;2023-12-20T10:10:50;3.05;;;1.30;;
32138;SDS011;18644;48.700;9.210;2023-12-20T10:13:18;2.05;;;1.13;;
32138;SDS011;18644;48.700;9.210;2023-12-20T10:15:44;5.88;;;1.55;;
32138;SDS011;18644;48.700;9.210;2023-12-20T10:18:12;2.92;;;1.75;;
32138;SDS011;18644;48.700;9.210;2023-12-20T10:20:39;2.10;;;1.27;;
32138;SDS011;18644;48.700;9.210;2023-12-20T10:23:08;3.67;;;1.10;;
32138;SDS011;18644;48.700;9.210;2023-12-20T10:25:35;2.83;;;1.20;;
32138;SDS011;18644;48.700;9.210;2023-12-20T10:28:09;5.15;;;1.88;;
32138;SDS011;18644;48.700;9.210;2023-12-20T10:30:37;7.70;;;1.85;;
32138;SDS011;18644;48.700;9.210;2023-12-20T10:33:05;4.40;;;1.27;;
32138;SDS011;18644;48.700;9.210;2023-12-20T10:35:32;2.33;;;1.30;;
32138;SDS011;18644;48.700;9.210;2023-12-20T10:38:00;2.97;;;1.10;;
32138;SDS011;18644;48.700;9.210;2023-12-20T10:40:32;4.20;;;1.10;;
32138;SDS011;18644;48.700;9.210;2023-12-20T10:43:02;1.90;;;0.98;;
32138;SDS011;18644;48.700;9.210;2023-12-20T10:45:30;2.95;;;1.20;;
32138;SDS011;18644;48.700;9.210;2023-12-20T10:47:56;2.22;;;0.93;;
32138;SDS011;18644;48.700;9.210;2023-12-20T10:50:26;4.03;;;1.05;;
32138;SDS011;18644;48.700;9.210;2023-12-20T10:52:54;3.65;;;1.10;;
32138;SDS011;18644;48.700;9.210;2023-12-20T10:55:21;3.65;;;1.05;;
32138;SDS011;18644;48.700;9.210;2023-12-20T10:57:50;1.15;;;0.80;;
32138;SDS011;18644;48.700;9.210;2023-12-20T11:00:18;2.47;;;0.95;;
32138;SDS011;18644;48.700;9.210;2023-12-20T11:02:46;0.95;;;0.80;;
32138;SDS011;18644;48.700;9.210;2023-12-20T11:05:19;2.60;;;1.35;;
32138;SDS011;18644;48.700;9.210;2023-12-20T11:07:56;3.35;;;1.35;;
32138;SDS011;18644;48.700;9.210;2023-12-20T11:10:29;6.57;;;1.20;;
32138;SDS011;18644;48.700;9.210;2023-12-20T11:13:05;2.70;;;1.10;;
32138;SDS011;18644;48.700;9.210;2023-12-20T11:15:39;2.13;;;1.13;;
32138;SDS011;18644;48.700;9.210;2023-12-20T11:18:06;3.53;;;1.25;;
32138;SDS011;18644;48.700;9.210;2023-12-20T11:20:36;2.33;;;1.27;;
32138;SDS011;18644;48.700;9.210;2023-12-20T11:23:05;2.05;;;1.30;;
32138;SDS011;18644;48.700;9.210;2023-12-20T11:25:49;2.80;;;1.27;;
32138;SDS011;18644;48.700;9.210;2023-12-20T11:28:22;4.18;;;1.00;;
32138;SDS011;18644;48.700;9.210;2023-12-20T11:30:50;3.80;;;1.48;;
32138;SDS011;18644;48.700;9.210;2023-12-20T11:33:22;4.85;;;1.85;;
32138;SDS011;18644;48.700;9.210;2023-12-20T11:35:50;4.47;;;1.33;;
32138;SDS011;18644;48.700;9.210;2023-12-20T11:38:17;2.35;;;1.17;;
32138;SDS011;18644;48.700;9.210;2023-12-20T11:40:47;4.55;;;1.55;;
32138;SDS011;18644;48.700;9.210;2023-12-20T11:43:16;4.20;;;1.10;;
32138;SDS011;18644;48.700;9.210;2023-12-20T11:46:02;2.58;;;1.40;;
32138;SDS011;18644;48.700;9.210;2023-12-20T11:48:31;1.85;;;1.10;;
32138;SDS011;18644;48.700;9.210;2023-12-20T11:50:58;2.53;;;1.15;;
32138;SDS011;18644;48.700;9.210;2023-12-20T11:53:25;2.75;;;0.98;;
32138;SDS011;18644;48.700;9.210;2023-12-20T11:55:53;9.80;;;2.47;;
32138;SDS011;18644;48.700;9.210;2023-12-20T11:58:20;2.08;;;1.10;;
32138;SDS011;18644;48.700;9.210;2023-12-20T12:00:49;5.35;;;1.50;;
32138;SDS011;18644;48.700;9.210;2023-12-20T12:03:16;4.38;;;1.33;;
32138;SDS011;18644;48.700;9.210;2023-12-20T12:05:45;2.28;;;1.40;;
32138;SDS011;18644;48.700;9.210;2023-12-20T12:08:13;1.48;;;0.95;;
32138;SDS011;18644;48.700;9.210;2023-12-20T12:10:40;3.33;;;1.30;;
32138;SDS011;18644;48.700;9.210;2023-12-20T12:13:07;3.75;;;1.00;;
32138;SDS011;18644;48.700;9.210;2023-12-20T12:15:34;1.38;;;1.02;;
32138;SDS011;18644;48.700;9.210;2023-12-20T12:18:04;2.58;;;1.08;;
32138;SDS011;18644;48.700;9.210;2023-12-20T12:20:31;2.67;;;1.10;;
32138;SDS011;18644;48.700;9.210;2023-12-20T12:22:58;2.05;;;0.88;;
32138;SDS011;18644;48.700;9.210;2023-12-20T12:25:26;6.32;;;1.50;;
32138;SDS011;18644;48.700;9.210;2023-12-20T12:27:55;3.60;;;1.10;;
32138;SDS011;18644;48.700;9.210;2023-12-20T12:30:22;2.67;;;1.02;;
32138;SDS011;18644;48.700;9.210;2023-12-20T12:32:49;2.03;;;0.90;;
32138;SDS011;18644;48.700;9.210;2023-12-20T12:35:18;2.30;;;1.20;;
32138;SDS011;18644;48.700;9.210;2023-12-20T12:37:45;2.17;;;1.10;;
32138;SDS011;18644;48.700;9.210;2023-12-20T12:40:13;2.53;;;0.90;;
32138;SDS011;18644;48.700;9.210;2023-12-20T12:42:42;2.10;;;0.98;;
32138;SDS011;18644;48.700;9.210;2023-12-20T12:45:11;3.47;;;1.23;;
32138;SDS011;18644;48.700;9.210;2023-12-20T12:47:38;2.97;;;1.42;;
32138;SDS011;18644;48.700;9.210;2023-12-20T12:50:06;6.18;;;1.50;;
32138;SDS011;18644;48.700;9.210;2023-12-20T12:52:35;3.55;;;1.10;;
32138;SDS011;18644;48.700;9.210;2023-12-20T12:55:03;2.20;;;0.95;;
32138;SDS011;18644;48.700;9.210;2023-12-20T12:57:30;2.20;;;0.98;;
32138;SDS011;18644;48.700;9.210;2023-12-20T12:59:57;3.53;;;1.10;;
32138;SDS011;18644;48.700;9.210;2023-12-20T13:02:24;6.20;;;1.05;;
32138;SDS011;18644;48.700;9.210;2023-12-20T13:04:51;5.63;;;1.23;;
32138;SDS011;18644;48.700;9.210;2023-12-20T13:07:18;1.45;;;1.13;;
32138;SDS011;18644;48.700;9.210;2023-12-20T13:09:46;3.00;;;1.20;;
32138;SDS011;18644;48.700;9.210;2023-12-20T13:12:13;2.75;;;1.20;;
32138;SDS011;18644;48.700;9.210;2023-12-20T13:14:40;2.63;;;1.00;;
32138;SDS011;18644;48.700;9.210;2023-12-20T13:17:07;2.13;;;1.05;;
32138;SDS011;18644;48.700;9.210;2023-12-20T13:19:33;2.50;;;1.30;;
32138;SDS011;18644;48.700;9.210;2023-12-20T13:22:00;2.63;;;1.00;;
32138;SDS011;18644;48.700;9.210;2023-12-20T13:24:27;4.05;;;1.20;;
32138;SDS011;18644;48.700;9.210;2023-12-20T13:26:55;5.75;;;1.30;;
32138;SDS011;18644;48.700;9.210;2023-12-20T13:29:22;5.97;;;1.10;;
32138;SDS011;18644;48.700;9.210;2023-12-20T13:31:52;3.78;;;1.42;;
32138;SDS011;18644;48.700;9.210;2023-12-20T13:34:19;2.67;;;1.00;;
32138;SDS011;18644;48.700;9.210;2023-12-20T13:36:46;5.45;;;1.58;;
32138;SDS011;18644;48.700;9.210;2023-12-20T13:39:15;4.30;;;1.67;;
32138;SDS011;18644;48.700;9.210;2023-12-20T13:41:43;2.00;;;0.98;;
32138;SDS011;18644;48.700;9.210;2023-12-20T13:44:11;2.53;;;1.25;;
32138;SDS011;18644;48.700;9.210;2023-12-20T13:46:38;3.53;;;1.00;;
32138;SDS011;18644;48.700;9.210;2023-12-20T13:49:06;3.88;;;1.00;;
32138;SDS011;18644;48.700;9.210;2023-12-20T13:51:33;3.22;;;0.88;;
32138;SDS011;18644;48.700;9.210;2023-12-20T13:54:00;3.70;;;1.27;;
32138;SDS011;18644;48.700;9.210;2023-12-20T13:56:27;3.00;;;1.25;;
32138;SDS011;18644;48.700;9.210;2023-12-20T13:58:54;2.40;;;0.82;;
32138;SDS011;18644;48.700;9.210;2023-12-20T14:01:22;1.75;;;1.05;;
32138;SDS011;18644;48.700;9.210;2023-12-20T14:03:49;5.18;;;1.20;;
32138;SDS011;18644;48.700;9.210;2023-12-20T14:06:16;4.55;;;1.00;;
32138;SDS011;18644;48.700;9.210;2023-12-20T14:08:43;1.17;;;1.08;;
32138;SDS011;18644;48.700;9.210;2023-12-20T14:11:10;2.17;;;1.05;;
32138;SDS011;18644;48.700;9.210;2023-12-20T14:13:37;3.42;;;0.95;;
32138;SDS011;18644;48.700;9.210;2023-12-20T14:16:04;1.80;;;0.98;;
32138;SDS011;18644;48.700;9.210;2023-12-20T14:18:32;2.08;;;1.00;;
32138;SDS011;18644;48.700;9.210;2023-12-20T14:20:59;1.27;;;1.02;;
32138;SDS011;18644;48.700;9.210;2023-12-20T14:23:26;2.95;;;1.25;;
32138;SDS011;18644;48.700;9.210;2023-12-20T14:25:53;2.13;;;1.10;;
32138;SDS011;18644;48.700;9.210;2023-12-20T14:28:21;4.13;;;1.08;;
32138;SDS011;18644;48.700;9.210;2023-12-20T14:30:47;1.92;;;1.00;;
32138;SDS011;18644;48.700;9.210;2023-12-20T14:33:15;1.17;;;0.90;;
32138;SDS011;18644;48.700;9.210;2023-12-20T14:35:43;2.72;;;1.10;;
32138;SDS011;18644;48.700;9.210;2023-12-20T14:38:10;4.40;;;0.90;;
32138;SDS011;18644;48.700;9.210;2023-12-20T14:40:38;1.95;;;0.88;;
32138;SDS011;18644;48.700;9.210;2023-12-20T14:43:05;4.22;;;1.23;;
32138;SDS011;18644;48.700;9.210;2023-12-20T14:45:32;4.88;;;1.02;;
32138;SDS011;18644;48.700;9.210;2023-12-20T14:47:59;2.08;;;0.98;;
32138;SDS011;18644;48.700;9.210;2023-12-20T14:50:26;2.63;;;1.45;;
32138;SDS011;18644;48.700;9.210;2023-12-20T14:52:54;3.28;;;0.88;;
32138;SDS011;18644;48.700;9.210;2023-12-20T14:55:21;3.78;;;1.00;;